Time;durP1;ratioP1;P1;durP2;ratioP2;P2;SDS_P1;SDS_P2;PMS_P1;PMS_P2;Temp;Humidity;BMP_temperature;BMP_pressure;BME280_temperature;BME280_humidity;BME280_pressure;Samples;Min_cycle;Max_cycle;Signal;HPM_P1;HPM_P2
2021/05/24 00:02:24;;;;;;;2.20;0.75;;;;;;;10.64;60.45;97116.03;4993196;28;20025;-79
2021/05/24 00:04:50;;;;;;;1.88;0.65;;;;;;;10.63;60.53;97106.63;4993483;28;20108;-80
2021/05/24 00:07:15;;;;;;;3.55;0.63;;;;;;;10.64;60.18;97110.00;4992467;28;20103;-80
2021/05/24 00:09:41;;;;;;;0.98;0.40;;;;;;;10.71;60.08;97109.81;5009991;28;20514;-79
2021/05/24 00:12:07;;;;;;;0.73;0.25;;;;;;;10.77;59.77;97104.41;5009910;28;20025;-79
2021/05/24 00:14:35;;;;;;;1.35;0.40;;;;;;;10.79;59.90;97106.78;4993301;28;20120;-79
2021/05/24 00:17:01;;;;;;;2.53;0.70;;;;;;;10.84;59.21;97106.81;5010563;28;20033;-79
2021/05/24 00:19:26;;;;;;;1.20;0.40;;;;;;;10.79;59.39;97101.56;5009843;28;20362;-79
2021/05/24 00:21:52;;;;;;;0.88;0.40;;;;;;;10.81;59.28;97095.09;5010303;28;20048;-79
2021/05/24 00:24:17;;;;;;;0.73;0.30;;;;;;;10.81;59.28;97086.47;5004700;28;20254;-80
2021/05/24 00:26:42;;;;;;;0.68;0.20;;;;;;;10.88;58.88;97089.66;4992806;28;20457;-79
2021/05/24 00:29:14;;;;;;;1.38;0.60;;;;;;;10.88;58.77;97092.25;5007724;28;20034;-80
2021/05/24 00:31:40;;;;;;;1.73;0.38;;;;;;;10.90;58.43;97086.81;4993390;28;20046;-80
2021/05/24 00:34:05;;;;;;;0.25;0.20;;;;;;;10.83;57.70;97076.59;4975440;28;20410;-79
2021/05/24 00:36:30;;;;;;;1.80;0.30;;;;;;;10.86;58.24;97086.50;4993115;28;20091;-79
2021/05/24 00:38:56;;;;;;;1.25;0.47;;;;;;;10.84;58.21;97081.56;4993140;28;20029;-79
2021/05/24 00:41:21;;;;;;;1.92;0.60;;;;;;;10.83;58.20;97089.59;4976900;28;20037;-80
2021/05/24 00:43:46;;;;;;;1.25;0.75;;;;;;;10.81;58.49;97091.69;4976990;28;20040;-80
2021/05/24 00:46:12;;;;;;;0.57;0.35;;;;;;;10.84;58.31;97091.19;5009029;28;20469;-79
2021/05/24 00:48:37;;;;;;;0.57;0.30;;;;;;;10.89;57.96;97091.25;4993230;28;20073;-79
2021/05/24 00:51:03;;;;;;;3.67;0.60;;;;;;;10.89;57.65;97091.25;4979374;28;20045;-79
2021/05/24 00:53:30;;;;;;;0.55;0.30;;;;;;;10.81;57.76;97084.69;5005764;28;20045;-79
2021/05/24 00:55:57;;;;;;;0.95;0.40;;;;;;;10.81;57.67;97083.88;4991734;28;20083;-79
2021/05/24 00:58:23;;;;;;;1.05;0.82;;;;;;;10.84;57.61;97078.16;4990454;28;20029;-79
2021/05/24 01:00:49;;;;;;;1.58;0.30;;;;;;;10.83;57.33;97073.97;5015250;28;20544;-79
2021/05/24 01:03:15;;;;;;;0.75;0.50;;;;;;;10.85;57.36;97077.94;5010649;28;20285;-79
2021/05/24 01:05:43;;;;;;;0.73;0.40;;;;;;;10.80;58.22;97074.50;5012430;28;20793;-79
2021/05/24 01:08:11;;;;;;;0.52;0.38;;;;;;;10.84;57.91;97076.34;5000078;28;20117;-79
2021/05/24 01:10:36;;;;;;;2.25;0.47;;;;;;;10.85;57.50;97069.34;5001900;28;20029;-79
2021/05/24 01:13:05;;;;;;;1.50;0.30;;;;;;;10.80;57.57;97072.69;4997307;28;20682;-79
2021/05/24 01:15:31;;;;;;;0.80;0.40;;;;;;;10.81;57.44;97060.44;4996974;28;20396;-79
2021/05/24 01:17:56;;;;;;;1.35;0.40;;;;;;;10.82;57.00;97051.59;4997630;28;20026;-79
2021/05/24 01:20:23;;;;;;;0.50;0.20;;;;;;;10.79;57.91;97054.69;4997046;28;20037;-79
2021/05/24 01:25:30;;;;;;;1.73;0.40;;;;;;;10.74;58.61;97046.84;5039288;28;20033;-80
2021/05/24 01:27:56;;;;;;;1.50;0.20;;;;;;;10.71;58.75;97044.72;5006659;28;20073;-79
2021/05/24 01:30:22;;;;;;;0.93;0.30;;;;;;;10.67;58.82;97036.63;4983825;28;20062;-79
2021/05/24 01:32:47;;;;;;;0.68;0.30;;;;;;;10.62;58.40;97028.75;4996764;28;20039;-79
2021/05/24 01:35:13;;;;;;;1.35;0.43;;;;;;;10.63;58.19;97031.13;5024787;28;20029;-79
2021/05/24 01:37:38;;;;;;;1.15;0.40;;;;;;;10.63;58.40;97031.13;5009714;28;20047;-79
2021/05/24 01:40:05;;;;;;;1.15;0.50;;;;;;;10.62;58.59;97028.75;4977794;28;20030;-79
2021/05/24 01:42:30;;;;;;;1.27;0.52;;;;;;;10.59;58.64;97014.44;5013292;28;20037;-79
2021/05/24 01:44:56;;;;;;;1.70;0.30;;;;;;;10.56;59.05;97007.13;4976523;28;20041;-79
2021/05/24 01:47:21;;;;;;;1.27;0.40;;;;;;;10.53;59.21;96996.41;5027240;28;20553;-79
2021/05/24 01:49:47;;;;;;;0.77;0.30;;;;;;;10.49;59.67;96994.31;4996560;28;20033;-79
2021/05/24 01:52:14;;;;;;;0.70;0.30;;;;;;;10.48;59.46;96997.16;4996880;28;20067;-79
2021/05/24 01:54:40;;;;;;;0.55;0.35;;;;;;;10.49;59.32;97003.94;4996133;28;20030;-79
2021/05/24 01:57:05;;;;;;;0.98;0.20;;;;;;;10.46;59.42;96992.19;4984010;28;20026;-79
2021/05/24 01:59:31;;;;;;;1.95;0.50;;;;;;;10.44;59.62;96991.66;4980432;28;20388;-79
2021/05/24 02:01:59;;;;;;;1.30;0.40;;;;;;;10.34;60.68;97003.81;4963901;28;20425;-79
2021/05/24 02:04:24;;;;;;;0.82;0.40;;;;;;;10.41;59.73;96997.34;4993611;28;20402;-79
2021/05/24 02:06:49;;;;;;;2.53;0.40;;;;;;;10.42;59.78;96992.97;5012423;28;20044;-79
2021/05/24 02:09:15;;;;;;;0.43;0.40;;;;;;;10.49;59.58;96990.94;5012830;28;20132;-79
2021/05/24 02:11:40;;;;;;;1.95;0.50;;;;;;;10.53;59.64;96988.59;5012439;28;20032;-79
2021/05/24 02:14:06;;;;;;;1.20;0.40;;;;;;;10.58;59.59;96989.44;4995572;28;20516;-79
2021/05/24 02:16:43;;;;;;;1.45;0.30;;;;;;;10.34;59.63;96988.97;5012537;28;20366;-79
2021/05/24 02:19:10;;;;;;;1.23;0.32;;;;;;;10.43;59.23;96984.09;4996391;28;20514;-79
2021/05/24 02:21:36;;;;;;;1.15;0.40;;;;;;;10.29;59.74;96981.09;5012623;28;20037;-79
2021/05/24 02:24:03;;;;;;;0.98;0.55;;;;;;;10.12;60.02;96981.19;4995690;28;20100;-79
2021/05/24 02:26:28;;;;;;;0.80;0.30;;;;;;;9.97;60.45;96968.03;5012764;28;20446;-79
2021/05/24 02:28:54;;;;;;;2.30;0.40;;;;;;;9.88;60.93;96972.88;4975207;28;20040;-79
2021/05/24 02:31:20;;;;;;;0.93;0.30;;;;;;;9.86;61.53;96970.53;4997050;28;20689;-79
2021/05/24 02:33:47;;;;;;;0.63;0.30;;;;;;;9.88;62.00;96967.69;5014073;28;20034;-79
2021/05/24 02:36:12;;;;;;;1.00;0.35;;;;;;;9.96;61.84;96954.25;4994051;28;20030;-79
2021/05/24 02:38:38;;;;;;;0.68;0.40;;;;;;;10.01;61.81;96966.53;4979220;28;20604;-79
2021/05/24 02:41:03;;;;;;;1.80;0.30;;;;;;;10.08;61.44;96967.88;4977090;28;20054;-78
2021/05/24 02:43:28;;;;;;;0.90;0.50;;;;;;;10.11;61.34;96967.41;4990935;28;20038;-79
2021/05/24 02:45:54;;;;;;;0.52;0.52;;;;;;;10.15;61.03;96965.09;4981076;28;20041;-79
2021/05/24 02:48:19;;;;;;;0.75;0.60;;;;;;;10.10;59.86;96975.44;4981713;28;20025;-78
2021/05/24 02:50:45;;;;;;;0.80;0.32;;;;;;;9.92;59.25;96968.75;5013787;28;20037;-79
2021/05/24 02:53:10;;;;;;;0.85;0.55;;;;;;;9.76;59.49;96967.81;5013775;28;20041;-79
2021/05/24 02:55:36;;;;;;;0.70;0.50;;;;;;;9.46;60.09;96969.06;5013927;28;20029;-79
2021/05/24 02:58:02;;;;;;;0.73;0.52;;;;;;;9.22;60.37;96962.50;4984726;28;20051;-79
2021/05/24 03:00:27;;;;;;;0.68;0.40;;;;;;;9.05;61.25;96971.13;4984282;28;20033;-79
2021/05/24 03:02:54;;;;;;;0.90;0.50;;;;;;;8.92;62.08;96948.09;4981374;28;20045;-79
2021/05/24 03:05:22;;;;;;;0.77;0.40;;;;;;;8.76;62.61;96944.50;4992689;28;20030;-79
2021/05/24 03:07:48;;;;;;;1.58;0.68;;;;;;;8.93;63.02;96954.88;5012327;28;20114;-79
2021/05/24 03:10:15;;;;;;;2.45;0.45;;;;;;;9.06;64.03;96954.50;4997294;28;20081;-79
2021/05/24 03:12:41;;;;;;;0.45;0.40;;;;;;;9.25;63.64;96954.22;5013575;28;20112;-79
2021/05/24 03:15:07;;;;;;;1.13;0.50;;;;;;;9.31;62.52;96953.28;4993709;28;20529;-79
2021/05/24 03:17:32;;;;;;;1.50;0.50;;;;;;;9.22;62.18;96949.50;4978100;28;20056;-79
2021/05/24 03:19:58;;;;;;;1.42;0.47;;;;;;;9.15;62.25;96947.88;4980842;28;20461;-79
2021/05/24 03:22:23;;;;;;;2.63;0.68;;;;;;;9.02;61.82;96950.84;4977618;28;20108;-79
2021/05/24 03:24:49;;;;;;;0.90;0.47;;;;;;;8.89;62.02;96949.34;5013043;28;20122;-79
2021/05/24 03:27:14;;;;;;;1.75;0.40;;;;;;;8.80;62.50;96948.97;4996724;28;20036;-79
2021/05/24 03:29:39;;;;;;;1.30;0.50;;;;;;;8.73;62.23;96958.72;4996915;28;20037;-79
2021/05/24 03:32:05;;;;;;;1.60;0.50;;;;;;;8.65;62.98;96956.53;5030756;28;20048;-79
2021/05/24 03:34:31;;;;;;;0.85;0.50;;;;;;;8.55;62.93;96946.00;4996854;28;20108;-79
2021/05/24 03:36:57;;;;;;;1.58;0.65;;;;;;;8.52;63.13;96947.25;5030677;28;20589;-79
2021/05/24 03:39:22;;;;;;;1.45;0.50;;;;;;;8.42;63.39;96941.88;4980643;28;20028;-79
2021/05/24 03:41:48;;;;;;;1.38;0.80;;;;;;;8.42;63.58;96937.50;5013321;28;20045;-79
2021/05/24 03:44:13;;;;;;;1.80;0.55;;;;;;;8.36;63.67;96935.84;4996345;28;20045;-79
2021/05/24 03:46:39;;;;;;;0.50;0.40;;;;;;;8.41;64.22;96946.31;4996625;28;20507;-79
2021/05/24 03:49:04;;;;;;;0.95;0.85;;;;;;;8.47;64.48;96939.41;4973976;28;20112;-79
2021/05/24 03:51:31;;;;;;;0.85;0.60;;;;;;;8.41;64.72;96935.13;5013036;28;20125;-79
2021/05/24 03:53:57;;;;;;;1.67;0.50;;;;;;;8.55;64.53;96941.59;4992975;28;20458;-79
2021/05/24 03:56:23;;;;;;;1.92;0.40;;;;;;;8.61;63.68;96940.66;5015751;28;20112;-79
2021/05/24 03:58:48;;;;;;;1.55;0.50;;;;;;;8.59;63.45;96941.91;4996747;28;20033;-79
2021/05/24 04:01:14;;;;;;;0.65;0.40;;;;;;;8.52;63.91;96934.28;4996370;28;20459;-79
2021/05/24 04:03:39;;;;;;;2.38;0.60;;;;;;;8.59;63.86;96944.50;5030291;28;20603;-79
2021/05/24 04:06:06;;;;;;;0.90;0.45;;;;;;;8.63;63.37;96941.19;5012719;28;20108;-79
2021/05/24 04:08:36;;;;;;;1.45;0.40;;;;;;;8.57;63.57;96926.59;4996793;28;20060;-79
2021/05/24 04:11:03;;;;;;;2.90;0.75;;;;;;;8.61;63.75;96924.28;5013408;28;20029;-79
2021/05/24 04:13:29;;;;;;;1.17;0.40;;;;;;;8.70;63.96;96933.25;4995999;28;20038;-78
2021/05/24 04:15:57;;;;;;;0.73;0.40;;;;;;;8.76;64.33;96927.13;4989873;28;20052;-78
2021/05/24 04:18:23;;;;;;;1.88;0.50;;;;;;;8.81;64.09;96929.78;5006389;28;20029;-79
2021/05/24 04:20:48;;;;;;;1.58;0.30;;;;;;;8.97;63.89;96928.16;4996407;28;20029;-79
2021/05/24 04:23:15;;;;;;;3.15;0.63;;;;;;;8.98;63.38;96921.19;5012462;28;20040;-79
2021/05/24 04:25:41;;;;;;;1.05;0.40;;;;;;;9.10;63.37;96927.03;5012555;28;20104;-79
2021/05/24 04:28:06;;;;;;;1.13;0.32;;;;;;;9.14;63.44;96935.16;4996255;28;20528;-79
2021/05/24 04:30:31;;;;;;;1.38;0.60;;;;;;;9.10;62.82;96934.03;4979601;28;20040;-79
2021/05/24 04:32:57;;;;;;;0.75;0.40;;;;;;;9.13;63.31;96942.16;4994268;28;20053;-79
2021/05/24 04:35:22;;;;;;;1.67;0.75;;;;;;;9.13;63.05;96946.53;5013482;28;20037;-79
2021/05/24 04:37:48;;;;;;;2.08;0.60;;;;;;;9.09;63.13;96927.28;5010123;28;20044;-79
2021/05/24 04:40:13;;;;;;;1.35;0.50;;;;;;;9.07;63.37;96931.94;4997041;28;20406;-79
2021/05/24 04:42:39;;;;;;;3.35;1.08;;;;;;;9.10;62.97;96921.03;5007865;28;20064;-79
2021/05/24 04:45:05;;;;;;;1.73;0.70;;;;;;;9.23;63.54;96925.91;5016262;28;20104;-79
2021/05/24 04:47:30;;;;;;;1.25;0.50;;;;;;;9.28;63.65;96932.97;4983763;28;20033;-78
2021/05/24 04:49:56;;;;;;;1.02;0.47;;;;;;;9.30;63.85;96918.69;5009476;28;20037;-79
2021/05/24 04:52:21;;;;;;;1.58;0.60;;;;;;;9.44;63.89;96926.13;5015705;28;20044;-79
2021/05/24 04:54:47;;;;;;;1.33;0.50;;;;;;;9.53;63.57;96919.50;5042322;28;20439;-79
2021/05/24 04:57:12;;;;;;;2.88;1.05;;;;;;;9.66;63.73;96923.50;4980904;28;20055;-79
2021/05/24 04:59:38;;;;;;;0.98;0.40;;;;;;;9.77;63.07;96924.41;4996913;28;20091;-79
2021/05/24 05:02:04;;;;;;;1.42;0.60;;;;;;;9.87;62.85;96922.72;5014400;28;20029;-78
2021/05/24 05:04:29;;;;;;;0.73;0.40;;;;;;;10.00;62.37;96912.94;5014681;28;20445;-79
2021/05/24 05:06:56;;;;;;;0.93;0.60;;;;;;;10.09;61.64;96912.25;4998994;28;20105;-79
2021/05/24 05:09:22;;;;;;;1.20;0.50;;;;;;;10.20;61.64;96910.50;4982539;28;20029;-79
2021/05/24 05:11:48;;;;;;;0.77;0.50;;;;;;;10.21;61.69;96909.47;5015040;28;20037;-79
2021/05/24 05:14:14;;;;;;;0.65;0.40;;;;;;;10.18;61.87;96919.56;4998214;28;20034;-79
2021/05/24 05:16:39;;;;;;;0.80;0.40;;;;;;;10.26;62.00;96922.53;4982333;28;20033;-79
2021/05/24 05:19:04;;;;;;;1.60;0.50;;;;;;;10.29;61.19;96913.44;4982315;28;20061;-79
2021/05/24 05:21:30;;;;;;;1.25;0.60;;;;;;;10.32;62.01;96914.78;4998492;28;20087;-78
2021/05/24 05:23:55;;;;;;;1.55;0.45;;;;;;;10.40;61.34;96912.53;4998473;28;20503;-79
2021/05/24 05:26:21;;;;;;;1.58;0.52;;;;;;;10.51;61.57;96909.97;4999228;28;20667;-79
2021/05/24 05:28:46;;;;;;;1.75;0.40;;;;;;;10.64;60.99;96915.53;5015470;28;20680;-79
2021/05/24 05:31:12;;;;;;;1.27;0.40;;;;;;;10.81;60.33;96893.75;4997207;28;20033;-79
2021/05/24 05:33:38;;;;;;;1.33;0.60;;;;;;;11.00;60.00;96900.13;4998802;28;20053;-79
2021/05/24 05:36:06;;;;;;;1.27;0.70;;;;;;;11.05;60.06;96894.13;4994574;28;20033;-79
2021/05/24 05:38:33;;;;;;;1.58;0.70;;;;;;;11.29;59.05;96891.88;4999151;28;20033;-79
2021/05/24 05:40:59;;;;;;;0.95;0.40;;;;;;;11.50;57.82;96897.97;5015713;28;20052;-78
2021/05/24 05:43:25;;;;;;;1.00;0.40;;;;;;;11.63;58.61;96899.28;4998284;28;20026;-79
2021/05/24 05:45:50;;;;;;;1.52;0.35;;;;;;;11.76;58.03;96893.56;4998578;28;20121;-79
2021/05/24 05:48:16;;;;;;;0.90;0.45;;;;;;;11.94;58.08;96899.38;4998848;28;20040;-79
2021/05/24 05:50:41;;;;;;;1.05;0.40;;;;;;;12.09;56.70;96893.38;4998772;28;20072;-79
2021/05/24 05:53:07;;;;;;;2.20;0.57;;;;;;;12.30;55.38;96899.38;4982484;28;20063;-79
2021/05/24 05:55:32;;;;;;;2.22;0.35;;;;;;;12.49;56.48;96900.44;5016541;28;20029;-79
2021/05/24 05:57:57;;;;;;;1.95;0.60;;;;;;;12.66;56.54;96891.50;4999841;28;20026;-79
2021/05/24 06:00:23;;;;;;;1.10;0.40;;;;;;;12.90;55.79;96889.91;4998543;28;20029;-79
2021/05/24 06:02:49;;;;;;;0.43;0.30;;;;;;;13.02;55.67;96889.59;4980490;28;20044;-79
2021/05/24 06:05:15;;;;;;;0.52;0.50;;;;;;;13.11;54.28;96887.22;4998236;28;20021;-79
2021/05/24 06:07:41;;;;;;;1.33;0.80;;;;;;;13.24;53.61;96881.38;4998563;28;20065;-79
2021/05/24 06:10:08;;;;;;;3.40;0.50;;;;;;;13.48;54.43;96888.63;4998523;28;20034;-79
2021/05/24 06:12:33;;;;;;;1.10;0.40;;;;;;;13.51;54.80;96885.47;5014682;28;20037;-79
2021/05/24 06:14:59;;;;;;;0.90;0.40;;;;;;;13.66;52.39;96877.56;5032042;28;20055;-79
2021/05/24 06:17:24;;;;;;;1.67;0.73;;;;;;;13.94;52.51;96877.88;5014802;28;20646;-79
2021/05/24 06:19:50;;;;;;;1.65;0.47;;;;;;;14.12;51.84;96878.28;4985092;28;20033;-79
2021/05/24 06:22:16;;;;;;;1.45;0.95;;;;;;;14.30;52.72;96879.44;4981819;28;20094;-79
2021/05/24 06:24:41;;;;;;;0.57;0.52;;;;;;;14.42;52.17;96883.25;5011061;28;20489;-79
2021/05/24 06:27:06;;;;;;;1.50;0.63;;;;;;;14.66;49.71;96879.16;5013053;28;20491;-78
2021/05/24 06:29:32;;;;;;;0.75;0.50;;;;;;;14.67;51.89;96863.16;4996403;28;20026;-79
2021/05/24 06:31:58;;;;;;;2.05;0.50;;;;;;;14.88;50.73;96876.03;4997567;28;20550;-79
2021/05/24 06:34:24;;;;;;;4.10;2.38;;;;;;;14.96;50.01;96867.56;5013944;28;20110;-79
2021/05/24 06:36:49;;;;;;;1.90;1.65;;;;;;;15.01;50.96;96859.66;5025516;28;20073;-79
2021/05/24 06:39:17;;;;;;;2.67;0.55;;;;;;;15.07;49.81;96866.38;4997650;28;20032;-79
2021/05/24 06:41:42;;;;;;;1.20;0.40;;;;;;;15.13;50.08;96869.69;4994098;28;20033;-78
2021/05/24 06:44:08;;;;;;;1.02;0.73;;;;;;;15.22;48.94;96869.88;4997452;28;20435;-78
2021/05/24 06:46:33;;;;;;;0.93;0.40;;;;;;;15.32;48.52;96848.78;5014020;28;20037;-79
2021/05/24 06:48:59;;;;;;;1.92;0.40;;;;;;;15.38;48.52;96858.13;5011013;28;20120;-79
2021/05/24 06:51:24;;;;;;;0.60;0.40;;;;;;;15.45;48.99;96860.41;4997146;28;20033;-79
2021/05/24 06:53:50;;;;;;;1.45;0.60;;;;;;;15.55;47.23;96866.28;5013603;28;20551;-78
2021/05/24 06:56:15;;;;;;;1.27;0.47;;;;;;;15.70;46.20;96861.88;4997838;28;20037;-78
2021/05/24 06:58:40;;;;;;;0.55;0.30;;;;;;;15.80;46.11;96853.91;4984612;28;20059;-79
2021/05/24 07:01:06;;;;;;;1.55;0.70;;;;;;;15.89;47.04;96846.16;5018453;28;20411;-79
2021/05/24 07:03:31;;;;;;;0.65;0.30;;;;;;;15.94;47.87;96848.69;5005428;28;20483;-79
2021/05/24 07:05:57;;;;;;;1.10;0.40;;;;;;;16.12;47.08;96860.22;5021840;28;20064;-79
2021/05/24 07:08:23;;;;;;;2.08;0.50;;;;;;;16.08;47.17;96857.38;5011569;28;20037;-78
2021/05/24 07:10:48;;;;;;;1.75;0.68;;;;;;;16.23;46.54;96852.97;4995775;28;20504;-79
2021/05/24 07:13:14;;;;;;;1.08;0.50;;;;;;;16.22;48.42;96859.28;5011539;28;20029;-78
2021/05/24 07:15:40;;;;;;;1.40;0.50;;;;;;;16.40;45.61;96855.81;5011411;28;20107;-78
2021/05/24 07:18:06;;;;;;;1.85;0.40;;;;;;;16.51;47.37;96859.03;5005119;28;20030;-78
2021/05/24 07:20:32;;;;;;;1.83;0.40;;;;;;;16.75;46.58;96863.34;4994996;28;20069;-78
2021/05/24 07:22:57;;;;;;;2.67;0.50;;;;;;;16.95;46.64;96857.72;5009181;28;20079;-79
2021/05/24 07:25:22;;;;;;;0.93;0.32;;;;;;;17.00;44.99;96860.25;4982993;28;20029;-79
2021/05/24 07:27:48;;;;;;;1.33;0.40;;;;;;;17.22;43.85;96856.13;4999947;28;20553;-78
2021/05/24 07:30:14;;;;;;;1.10;0.32;;;;;;;17.31;43.71;96854.38;5022488;28;20087;-79
2021/05/24 07:32:40;;;;;;;2.97;0.45;;;;;;;17.57;43.64;96857.22;4978571;28;20095;-79
2021/05/24 07:35:06;;;;;;;1.55;0.43;;;;;;;17.45;44.48;96856.19;4994867;28;20033;-78
2021/05/24 07:37:31;;;;;;;1.95;0.40;;;;;;;17.55;42.68;96858.63;4978060;28;20037;-78
2021/05/24 07:39:57;;;;;;;0.65;0.30;;;;;;;17.85;43.42;96853.72;5011704;28;20033;-78
2021/05/24 07:42:22;;;;;;;1.10;0.43;;;;;;;18.25;43.91;96867.03;4975495;28;20057;-78
2021/05/24 07:44:48;;;;;;;0.73;0.30;;;;;;;18.36;43.30;96855.16;4994656;28;20116;-78
2021/05/24 07:47:13;;;;;;;2.30;0.60;;;;;;;18.59;41.85;96863.00;5011446;28;20052;-78
2021/05/24 07:49:39;;;;;;;1.67;0.60;;;;;;;18.66;41.12;96858.06;4991212;28;20624;-79
2021/05/24 07:52:05;;;;;;;1.40;0.40;;;;;;;18.93;41.93;96862.38;4978951;28;20036;-78
2021/05/24 07:54:30;;;;;;;1.00;0.30;;;;;;;19.28;41.91;96857.97;5004872;28;20037;-78
2021/05/24 07:56:56;;;;;;;0.75;0.50;;;;;;;19.17;39.29;96851.44;5013212;28;20075;-78
2021/05/24 07:59:21;;;;;;;0.85;0.35;;;;;;;19.28;39.45;96852.69;5010747;28;20554;-76
2021/05/24 08:01:47;;;;;;;1.75;0.43;;;;;;;19.55;40.73;96850.06;4978806;28;20088;-77
2021/05/24 08:04:12;;;;;;;0.65;0.40;;;;;;;19.50;39.28;96843.09;4994353;28;20034;-78
2021/05/24 08:06:38;;;;;;;1.70;0.93;;;;;;;19.72;40.83;96846.66;5028587;28;20033;-78
2021/05/24 08:09:05;;;;;;;3.22;0.60;;;;;;;19.95;40.13;96842.78;4994548;28;20397;-77
2021/05/24 08:11:31;;;;;;;0.40;0.40;;;;;;;20.01;37.63;96844.19;4978442;28;20120;-79
2021/05/24 08:13:57;;;;;;;1.05;0.32;;;;;;;20.09;36.79;96853.19;4994241;28;20528;-80
2021/05/24 08:16:22;;;;;;;1.30;0.40;;;;;;;20.38;38.65;96847.19;5010739;28;20116;-78
2021/05/24 08:18:48;;;;;;;0.65;0.38;;;;;;;20.44;35.95;96841.75;4994373;28;20025;-79
2021/05/24 08:21:16;;;;;;;0.50;0.30;;;;;;;20.43;38.14;96850.78;5010799;28;20057;-79
2021/05/24 08:23:42;;;;;;;2.03;0.75;;;;;;;19.98;35.68;96839.53;4991133;28;20052;-79
2021/05/24 08:26:08;;;;;;;1.67;0.40;;;;;;;19.68;37.22;96851.03;5013454;28;20036;-78
2021/05/24 08:28:33;;;;;;;0.88;0.30;;;;;;;19.58;36.47;96844.94;4985538;28;20038;-78
2021/05/24 08:30:59;;;;;;;1.10;0.57;;;;;;;19.71;36.72;96840.59;4987228;28;20088;-78
2021/05/24 08:33:25;;;;;;;1.40;0.30;;;;;;;19.72;37.73;96836.09;4978581;28;20038;-78
2021/05/24 08:35:50;;;;;;;1.33;0.40;;;;;;;19.67;38.80;96831.72;5016767;28;20071;-78
2021/05/24 08:38:16;;;;;;;1.15;0.40;;;;;;;19.61;38.42;96833.75;5008315;28;20018;-78
2021/05/24 08:40:45;;;;;;;0.50;0.50;;;;;;;19.59;39.19;96841.22;5015357;28;20052;-78
2021/05/24 08:43:11;;;;;;;1.15;0.32;;;;;;;19.89;40.40;96817.59;4980959;28;20056;-78
2021/05/24 08:45:38;;;;;;;1.92;0.55;;;;;;;19.89;38.45;96812.31;5000136;28;20502;-78
2021/05/24 08:48:07;;;;;;;2.83;0.60;;;;;;;19.88;37.89;96810.00;4985835;28;20465;-78
2021/05/24 08:50:33;;;;;;;1.42;0.60;;;;;;;20.05;37.54;96811.81;4997539;28;20042;-78
2021/05/24 08:52:59;;;;;;;1.90;0.45;;;;;;;20.15;35.03;96804.34;4997110;28;20402;-78
2021/05/24 08:55:24;;;;;;;2.83;0.95;;;;;;;20.36;36.83;96799.16;4994358;28;20592;-79
2021/05/24 08:57:50;;;;;;;1.00;0.32;;;;;;;20.15;38.32;96803.56;5009423;28;20472;-78
2021/05/24 09:00:17;;;;;;;0.98;0.40;;;;;;;20.09;36.47;96788.97;5005416;28;20025;-78
2021/05/24 09:02:51;;;;;;;0.40;0.40;;;;;;;20.23;37.39;96786.91;5029121;28;20504;-79
2021/05/24 09:05:17;;;;;;;1.55;0.47;;;;;;;20.62;37.75;96785.06;5014600;28;20056;-78
2021/05/24 09:07:55;;;;;;;0.60;0.30;;;;;;;20.55;37.13;96784.75;4969906;28;20022;-78
2021/05/24 09:10:23;;;;;;;0.95;0.40;;;;;;;20.66;36.42;96779.91;5041272;28;20114;-78
2021/05/24 09:12:49;;;;;;;1.58;0.57;;;;;;;21.00;36.78;96778.16;5013709;28;20224;-78
2021/05/24 09:15:26;;;;;;;2.40;0.50;;;;;;;20.82;35.42;96772.19;4989531;28;20057;-78
2021/05/24 09:18:00;;;;;;;1.00;0.60;;;;;;;21.11;36.08;96769.53;5009560;28;20033;-79
2021/05/24 09:20:28;;;;;;;0.65;0.45;;;;;;;21.39;35.28;96758.41;4993706;28;20083;-78
2021/05/24 09:23:13;;;;;;;0.50;0.40;;;;;;;21.20;34.46;96760.72;4979497;28;20041;-80
2021/05/24 09:25:54;;;;;;;1.92;0.55;;;;;;;21.34;34.52;96753.28;5001400;28;20048;-77
2021/05/24 09:28:40;;;;;;;2.05;0.50;;;;;;;21.54;34.69;96754.41;5004060;28;20098;-78
2021/05/24 09:31:10;;;;;;;1.50;0.43;;;;;;;21.87;34.01;96762.34;5029423;28;20041;-78
2021/05/24 09:33:37;;;;;;;2.42;0.73;;;;;;;22.56;32.07;96744.06;4996936;28;20147;-79
2021/05/24 09:36:04;;;;;;;1.27;0.65;;;;;;;22.79;33.30;96735.63;5036058;28;20039;-79
2021/05/24 09:38:38;;;;;;;0.82;0.52;;;;;;;22.35;32.59;96738.13;4993215;28;20079;-77
2021/05/24 09:41:05;;;;;;;1.45;0.50;;;;;;;22.22;32.34;96738.06;4997442;28;20048;-78
2021/05/24 09:43:38;;;;;;;1.77;0.50;;;;;;;21.99;32.55;96742.25;5015458;28;20033;-78
2021/05/24 09:46:20;;;;;;;1.52;0.70;;;;;;;21.38;32.63;96735.66;5016264;28;20031;-78
2021/05/24 09:48:51;;;;;;;1.48;0.75;;;;;;;21.78;31.08;96740.44;5007224;28;20026;-78
2021/05/24 09:51:22;;;;;;;0.50;0.40;;;;;;;21.83;32.28;96745.53;5003114;28;20067;-77
2021/05/24 09:54:03;;;;;;;0.65;0.60;;;;;;;21.75;32.26;96737.69;4999108;28;20029;-78
2021/05/24 09:56:33;;;;;;;1.25;0.50;;;;;;;21.81;31.02;96734.47;5019526;28;20384;-78
2021/05/24 09:59:15;;;;;;;0.90;0.32;;;;;;;22.04;31.22;96724.25;4984322;28;20029;-78
2021/05/24 10:01:44;;;;;;;1.02;0.40;;;;;;;22.51;31.73;96735.56;5012826;28;20044;-78
2021/05/24 10:04:18;;;;;;;1.48;0.57;;;;;;;22.24;32.13;96749.13;5012796;28;20484;-78
2021/05/24 10:06:44;;;;;;;3.30;0.50;;;;;;;22.50;30.99;96740.13;4976996;28;20041;-78
2021/05/24 10:09:11;;;;;;;1.77;0.50;;;;;;;22.89;29.68;96737.81;5000904;28;20496;-78
2021/05/24 10:11:44;;;;;;;1.75;0.47;;;;;;;22.77;31.57;96728.03;5013344;28;20393;-78
2021/05/24 10:14:12;;;;;;;0.75;0.40;;;;;;;22.95;29.57;96728.53;4996172;28;20033;-78
2021/05/24 10:16:45;;;;;;;2.15;0.47;;;;;;;22.58;32.03;96736.53;4996284;28;20484;-78
2021/05/24 10:19:12;;;;;;;1.48;0.50;;;;;;;22.93;31.02;96724.69;4981636;28;20114;-78
2021/05/24 10:21:41;;;;;;;0.95;0.47;;;;;;;23.17;30.24;96719.31;5015801;28;20401;-78
2021/05/24 10:24:07;;;;;;;1.85;0.85;;;;;;;23.48;30.29;96717.09;5014921;28;20086;-78
2021/05/24 10:26:35;;;;;;;0.80;0.50;;;;;;;23.22;30.49;96707.69;4986040;28;20122;-79
2021/05/24 10:29:01;;;;;;;1.45;0.60;;;;;;;23.37;30.76;96706.97;5020446;28;20059;-78
2021/05/24 10:31:29;;;;;;;2.20;0.55;;;;;;;23.37;29.93;96706.16;4982769;28;20415;-78
2021/05/24 10:34:08;;;;;;;0.98;0.60;;;;;;;23.03;31.62;96691.56;5011833;28;20044;-78
2021/05/24 10:36:34;;;;;;;1.98;0.63;;;;;;;23.16;32.53;96691.19;5012857;28;20037;-78
2021/05/24 10:39:18;;;;;;;1.55;0.52;;;;;;;23.30;31.18;96693.47;4996749;28;20036;-78
2021/05/24 10:41:45;;;;;;;0.93;0.50;;;;;;;23.31;28.98;96697.69;5003615;28;20551;-78
2021/05/24 10:44:12;;;;;;;0.57;0.57;;;;;;;23.21;30.17;96684.88;5008938;28;20476;-78
2021/05/24 10:46:38;;;;;;;1.67;0.60;;;;;;;23.29;32.01;96691.94;4990702;28;20025;-79
2021/05/24 10:49:10;;;;;;;0.60;0.60;;;;;;;23.67;29.63;96685.31;4981303;28;20506;-78
2021/05/24 10:51:53;;;;;;;1.98;0.60;;;;;;;23.67;31.18;96677.34;5009422;28;20041;-78
2021/05/24 10:54:23;;;;;;;1.10;0.60;;;;;;;23.87;29.57;96666.81;4998219;28;20147;-77
2021/05/24 10:56:59;;;;;;;2.08;0.80;;;;;;;23.32;28.96;96661.25;4998242;28;20037;-78
2021/05/24 11:02:12;;;;;;;2.20;0.70;;;;;;;22.60;33.26;96662.72;5024847;28;20033;-77
2021/05/24 11:04:58;;;;;;;1.75;0.57;;;;;;;22.33;31.94;96653.56;5013097;28;20045;-78
2021/05/24 11:07:42;;;;;;;0.77;0.35;;;;;;;22.29;31.59;96650.03;5013507;28;20026;-77
2021/05/24 11:10:13;;;;;;;1.88;0.70;;;;;;;22.57;31.63;96658.06;4997047;28;20356;-77
2021/05/24 11:12:40;;;;;;;0.50;0.47;;;;;;;22.74;33.00;96643.75;5013570;28;20542;-77
2021/05/24 11:15:09;;;;;;;1.55;0.57;;;;;;;23.05;33.11;96638.88;4981305;28;20517;-77
2021/05/24 11:18:00;;;;;;;1.80;0.60;;;;;;;22.53;32.91;96638.59;4996972;28;20087;-77
2021/05/24 11:20:50;;;;;;;1.80;0.80;;;;;;;23.04;31.27;96634.69;5013735;28;20101;-77
2021/05/24 11:26:11;;;;;;;1.23;0.50;;;;;;;22.88;29.92;96622.16;5012012;28;20029;-77
2021/05/24 11:28:37;;;;;;;1.20;0.50;;;;;;;22.67;31.65;96624.19;5013436;28;20041;-77
2021/05/24 11:31:23;;;;;;;1.55;0.50;;;;;;;22.20;30.75;96630.78;4983404;28;20052;-79
2021/05/24 11:33:49;;;;;;;1.10;0.30;;;;;;;21.65;31.76;96631.00;4993895;28;20038;-78
2021/05/24 11:36:28;;;;;;;2.08;0.75;;;;;;;21.69;34.10;96628.47;4993475;28;20022;-78
2021/05/24 11:39:03;;;;;;;0.55;0.40;;;;;;;21.89;34.24;96627.59;4993090;28;20022;-78
2021/05/24 11:41:31;;;;;;;0.75;0.32;;;;;;;22.14;34.90;96621.50;5013659;28;20037;-78
2021/05/24 11:44:00;;;;;;;1.27;0.40;;;;;;;22.41;32.49;96622.72;5006904;28;20064;-78